Terminal Aerodrome Forecast
Issued by NWS Jackson, KY

Home | Current Version | Previous Version | Text Only | Print | Product List | Glossary On
Versions: 1 2 3 4 5 6 7 8 9 10 11 12 13
942
FTUS43 KJKL 231737
TAFJKL
TAF
KJKL 231737Z 2318/2418 12007KT P6SM -SHRA OVC060
     FM232100 10005KT P6SM VCSH OVC050
     FM241100 VRB04KT P6SM -SHRA BKN025 OVC035
     FM241300 VRB05KT 5SM -SHRA BR BKN010 OVC025=

USA.gov is the U.S. government's official web portal to all federal, state and local government web resources and services.